KJST/JST METAR and TAF weather

Enter ICAO airport designator
Station Type Date Time Source
KJST METAR 2019/06/16 20:54 UTC NOAA

KJST 162054Z AUTO 26010G19KT 10SM BKN018 BKN024 OVC049 21/17 A2992 RMK AO2 SLP120 60000 T02060172 52001


Station Type Date Time Source
KJST Decoded METAR 2019/06/16 20:54 UTC NOAA

JOHNSTOWN-CAMBRIA CO AIRPORT , PA, United States (KJST) 40-19N 078-50W 694M
Jun 16, 2019 - 04:54 PM EDT / 2019.06.16 2054 UTC
Wind: from the W (260 degrees) at 12 MPH (10 KT) gusting to 22 MPH (19 KT):0
Visibility: 10 mile(s):0
Sky conditions: overcast
Temperature: 69.1 F (20.6 C)
Dew Point: 63.0 F (17.2 C)
Relative Humidity: 80%
Pressure (altimeter): 29.92 in. Hg (1013 hPa)
Pressure tendency: 0.00 inches (0.1 hPa) higher than three hours ago
ob: KJST 162054Z AUTO 26010G19KT 10SM BKN018 BKN024 OVC049 21/17 A2992 RMK AO2 SLP120 60000 T02060172 52001
cycle: 21

Station Type Date Time Source
KJST TAF 2019/06/16 18:54 UTC NOAA

TAF KJST 161753Z 1618/1718 24012G22KT P6SM -RA OVC012
FM170000 26009KT P6SM VCTS SCT025 OVC050CB
FM170300 24005KT 6SM BR BKN080
FM170900 24004KT P6SM OVC008
FM171200 22004KT P6SM OVC015

Example: see airport list